sensor_id;sensor_type;location;lat;lon;timestamp;P1;P2;P0
48893;PMS5003;34710;35.798;139.446;2022-10-31T00:01:39;8;8;
48893;PMS5003;34710;35.798;139.446;2022-10-31T00:04:08;8;8;
48893;PMS5003;34710;35.798;139.446;2022-10-31T00:06:38;11;9;
48893;PMS5003;34710;35.798;139.446;2022-10-31T00:09:07;8;8;
48893;PMS5003;34710;35.798;139.446;2022-10-31T00:11:37;9;9;
48893;PMS5003;34710;35.798;139.446;2022-10-31T00:14:08;7;7;
48893;PMS5003;34710;35.798;139.446;2022-10-31T00:16:37;10;9;
48893;PMS5003;34710;35.798;139.446;2022-10-31T00:19:07;11;9;
48893;PMS5003;34710;35.798;139.446;2022-10-31T00:21:36;10;8;
48893;PMS5003;34710;35.798;139.446;2022-10-31T00:24:06;10;9;
48893;PMS5003;34710;35.798;139.446;2022-10-31T00:26:35;13;13;
48893;PMS5003;34710;35.798;139.446;2022-10-31T00:29:05;15;14;
48893;PMS5003;34710;35.798;139.446;2022-10-31T00:31:34;32;17;
48893;PMS5003;34710;35.798;139.446;2022-10-31T00:34:04;19;17;
48893;PMS5003;34710;35.798;139.446;2022-10-31T00:36:33;16;15;
48893;PMS5003;34710;35.798;139.446;2022-10-31T00:39:02;13;11;
48893;PMS5003;34710;35.798;139.446;2022-10-31T00:41:31;9;8;
48893;PMS5003;34710;35.798;139.446;2022-10-31T00:44:00;11;8;
48893;PMS5003;34710;35.798;139.446;2022-10-31T00:46:30;7;6;
48893;PMS5003;34710;35.798;139.446;2022-10-31T00:48:59;8;7;
48893;PMS5003;34710;35.798;139.446;2022-10-31T00:51:29;7;5;
48893;PMS5003;34710;35.798;139.446;2022-10-31T00:53:59;6;4;
48893;PMS5003;34710;35.798;139.446;2022-10-31T00:56:27;7;6;
48893;PMS5003;34710;35.798;139.446;2022-10-31T00:58:57;5;5;
48893;PMS5003;34710;35.798;139.446;2022-10-31T01:01:26;7;4;
48893;PMS5003;34710;35.798;139.446;2022-10-31T01:03:56;7;6;
48893;PMS5003;34710;35.798;139.446;2022-10-31T01:06:25;4;4;
48893;PMS5003;34710;35.798;139.446;2022-10-31T01:08:55;5;5;
48893;PMS5003;34710;35.798;139.446;2022-10-31T01:11:24;6;5;
48893;PMS5003;34710;35.798;139.446;2022-10-31T01:13:53;4;4;
48893;PMS5003;34710;35.798;139.446;2022-10-31T01:16:24;6;4;
48893;PMS5003;34710;35.798;139.446;2022-10-31T01:18:54;5;5;
48893;PMS5003;34710;35.798;139.446;2022-10-31T01:21:24;5;5;
48893;PMS5003;34710;35.798;139.446;2022-10-31T01:23:55;5;5;
48893;PMS5003;34710;35.798;139.446;2022-10-31T01:26:24;6;5;
48893;PMS5003;34710;35.798;139.446;2022-10-31T01:28:56;4;4;
48893;PMS5003;34710;35.798;139.446;2022-10-31T01:31:27;5;5;
48893;PMS5003;34710;35.798;139.446;2022-10-31T01:33:58;5;5;
48893;PMS5003;34710;35.798;139.446;2022-10-31T01:36:30;6;4;
48893;PMS5003;34710;35.798;139.446;2022-10-31T01:39:02;4;4;
48893;PMS5003;34710;35.798;139.446;2022-10-31T01:41:35;4;4;
48893;PMS5003;34710;35.798;139.446;2022-10-31T01:44:51;3;3;
48893;PMS5003;34710;35.798;139.446;2022-10-31T01:47:33;4;4;
48893;PMS5003;34710;35.798;139.446;2022-10-31T01:50:11;3;3;
48893;PMS5003;34710;35.798;139.446;2022-10-31T01:52:48;6;5;
48893;PMS5003;34710;35.798;139.446;2022-10-31T01:55:20;5;5;
48893;PMS5003;34710;35.798;139.446;2022-10-31T01:57:53;5;5;
48893;PMS5003;34710;35.798;139.446;2022-10-31T02:00:24;5;5;
48893;PMS5003;34710;35.798;139.446;2022-10-31T02:02:55;6;6;
48893;PMS5003;34710;35.798;139.446;2022-10-31T02:05:25;6;4;
48893;PMS5003;34710;35.798;139.446;2022-10-31T02:07:58;7;6;
48893;PMS5003;34710;35.798;139.446;2022-10-31T02:10:32;4;3;
48893;PMS5003;34710;35.798;139.446;2022-10-31T02:13:04;9;5;
48893;PMS5003;34710;35.798;139.446;2022-10-31T02:15:35;4;4;
48893;PMS5003;34710;35.798;139.446;2022-10-31T02:18:05;4;4;
48893;PMS5003;34710;35.798;139.446;2022-10-31T02:20:38;8;7;
48893;PMS5003;34710;35.798;139.446;2022-10-31T02:23:19;8;7;
48893;PMS5003;34710;35.798;139.446;2022-10-31T02:24:42;8;7;
48893;PMS5003;34710;35.798;139.446;2022-10-31T02:27:29;6;6;
48893;PMS5003;34710;35.798;139.446;2022-10-31T02:30:18;7;5;
48893;PMS5003;34710;35.798;139.446;2022-10-31T02:32:55;8;8;
48893;PMS5003;34710;35.798;139.446;2022-10-31T02:35:46;7;6;
48893;PMS5003;34710;35.798;139.446;2022-10-31T02:38:24;7;5;
48893;PMS5003;34710;35.798;139.446;2022-10-31T02:41:03;9;8;
48893;PMS5003;34710;35.798;139.446;2022-10-31T02:43:40;6;6;
48893;PMS5003;34710;35.798;139.446;2022-10-31T02:46:18;5;5;
48893;PMS5003;34710;35.798;139.446;2022-10-31T02:48:52;8;7;
48893;PMS5003;34710;35.798;139.446;2022-10-31T02:51:26;10;8;
48893;PMS5003;34710;35.798;139.446;2022-10-31T02:53:56;9;9;
48893;PMS5003;34710;35.798;139.446;2022-10-31T02:56:25;9;8;
48893;PMS5003;34710;35.798;139.446;2022-10-31T02:58:55;8;7;
48893;PMS5003;34710;35.798;139.446;2022-10-31T03:01:34;8;8;
48893;PMS5003;34710;35.798;139.446;2022-10-31T03:04:22;9;9;
48893;PMS5003;34710;35.798;139.446;2022-10-31T03:07:00;10;7;
48893;PMS5003;34710;35.798;139.446;2022-10-31T03:09:40;9;8;
48893;PMS5003;34710;35.798;139.446;2022-10-31T03:12:16;7;7;
48893;PMS5003;34710;35.798;139.446;2022-10-31T03:14:53;11;7;
48893;PMS5003;34710;35.798;139.446;2022-10-31T03:17:30;9;9;
48893;PMS5003;34710;35.798;139.446;2022-10-31T03:20:06;8;8;
48893;PMS5003;34710;35.798;139.446;2022-10-31T03:22:37;11;10;
48893;PMS5003;34710;35.798;139.446;2022-10-31T03:25:09;13;10;
48893;PMS5003;34710;35.798;139.446;2022-10-31T03:27:40;9;8;
48893;PMS5003;34710;35.798;139.446;2022-10-31T03:30:12;9;9;
48893;PMS5003;34710;35.798;139.446;2022-10-31T03:32:43;10;9;
48893;PMS5003;34710;35.798;139.446;2022-10-31T03:35:16;11;11;
48893;PMS5003;34710;35.798;139.446;2022-10-31T03:37:49;13;13;
48893;PMS5003;34710;35.798;139.446;2022-10-31T03:40:21;11;9;
48893;PMS5003;34710;35.798;139.446;2022-10-31T03:42:55;10;10;
48893;PMS5003;34710;35.798;139.446;2022-10-31T03:45:28;15;14;
48893;PMS5003;34710;35.798;139.446;2022-10-31T03:48:00;10;10;
48893;PMS5003;34710;35.798;139.446;2022-10-31T03:50:30;13;12;
48893;PMS5003;34710;35.798;139.446;2022-10-31T03:53:09;11;10;
48893;PMS5003;34710;35.798;139.446;2022-10-31T03:55:47;12;10;
48893;PMS5003;34710;35.798;139.446;2022-10-31T03:58:20;13;13;
48893;PMS5003;34710;35.798;139.446;2022-10-31T04:00:51;8;8;
48893;PMS5003;34710;35.798;139.446;2022-10-31T04:03:22;10;8;
48893;PMS5003;34710;35.798;139.446;2022-10-31T04:05:54;8;8;
48893;PMS5003;34710;35.798;139.446;2022-10-31T04:08:26;8;8;
48893;PMS5003;34710;35.798;139.446;2022-10-31T04:10:59;11;9;
48893;PMS5003;34710;35.798;139.446;2022-10-31T04:13:31;7;6;
48893;PMS5003;34710;35.798;139.446;2022-10-31T04:16:05;9;9;
48893;PMS5003;34710;35.798;139.446;2022-10-31T04:18:35;18;10;
48893;PMS5003;34710;35.798;139.446;2022-10-31T04:21:05;6;5;
48893;PMS5003;34710;35.798;139.446;2022-10-31T04:23:35;5;5;
48893;PMS5003;34710;35.798;139.446;2022-10-31T04:26:06;4;4;
48893;PMS5003;34710;35.798;139.446;2022-10-31T04:28:35;8;8;
48893;PMS5003;34710;35.798;139.446;2022-10-31T04:31:05;3;3;
48893;PMS5003;34710;35.798;139.446;2022-10-31T04:33:36;6;4;
48893;PMS5003;34710;35.798;139.446;2022-10-31T04:36:06;3;1;
48893;PMS5003;34710;35.798;139.446;2022-10-31T04:38:36;4;4;
48893;PMS5003;34710;35.798;139.446;2022-10-31T04:41:05;2;2;
48893;PMS5003;34710;35.798;139.446;2022-10-31T04:43:35;2;2;
48893;PMS5003;34710;35.798;139.446;2022-10-31T04:46:05;3;3;
48893;PMS5003;34710;35.798;139.446;2022-10-31T04:48:34;2;2;
48893;PMS5003;34710;35.798;139.446;2022-10-31T04:51:04;3;3;
48893;PMS5003;34710;35.798;139.446;2022-10-31T04:53:33;4;3;
48893;PMS5003;34710;35.798;139.446;2022-10-31T04:56:02;3;3;
48893;PMS5003;34710;35.798;139.446;2022-10-31T04:58:32;5;5;
48893;PMS5003;34710;35.798;139.446;2022-10-31T05:01:01;8;7;
48893;PMS5003;34710;35.798;139.446;2022-10-31T05:03:31;5;3;
48893;PMS5003;34710;35.798;139.446;2022-10-31T05:06:00;3;3;
48893;PMS5003;34710;35.798;139.446;2022-10-31T05:08:30;3;3;
48893;PMS5003;34710;35.798;139.446;2022-10-31T05:10:59;5;3;
48893;PMS5003;34710;35.798;139.446;2022-10-31T05:13:30;2;2;
48893;PMS5003;34710;35.798;139.446;2022-10-31T05:15:59;4;4;
48893;PMS5003;34710;35.798;139.446;2022-10-31T05:18:28;6;4;
48893;PMS5003;34710;35.798;139.446;2022-10-31T05:20:57;2;2;
48893;PMS5003;34710;35.798;139.446;2022-10-31T05:23:27;7;5;
48893;PMS5003;34710;35.798;139.446;2022-10-31T05:25:56;7;3;
48893;PMS5003;34710;35.798;139.446;2022-10-31T05:28:26;4;4;
48893;PMS5003;34710;35.798;139.446;2022-10-31T05:30:55;6;5;
48893;PMS5003;34710;35.798;139.446;2022-10-31T05:33:24;1;1;
48893;PMS5003;34710;35.798;139.446;2022-10-31T05:35:54;3;3;
48893;PMS5003;34710;35.798;139.446;2022-10-31T05:38:23;5;4;
48893;PMS5003;34710;35.798;139.446;2022-10-31T05:40:54;4;3;
48893;PMS5003;34710;35.798;139.446;2022-10-31T05:43:23;3;3;
48893;PMS5003;34710;35.798;139.446;2022-10-31T05:45:53;6;3;
48893;PMS5003;34710;35.798;139.446;2022-10-31T05:48:23;3;3;
48893;PMS5003;34710;35.798;139.446;2022-10-31T05:50:52;8;4;
48893;PMS5003;34710;35.798;139.446;2022-10-31T05:53:22;5;5;
48893;PMS5003;34710;35.798;139.446;2022-10-31T05:55:52;4;4;
48893;PMS5003;34710;35.798;139.446;2022-10-31T05:58:21;4;4;
48893;PMS5003;34710;35.798;139.446;2022-10-31T06:00:51;5;5;
48893;PMS5003;34710;35.798;139.446;2022-10-31T06:03:20;3;3;
48893;PMS5003;34710;35.798;139.446;2022-10-31T06:05:50;4;4;
48893;PMS5003;34710;35.798;139.446;2022-10-31T06:08:19;5;3;
48893;PMS5003;34710;35.798;139.446;2022-10-31T06:10:49;4;4;
48893;PMS5003;34710;35.798;139.446;2022-10-31T06:13:18;4;4;
48893;PMS5003;34710;35.798;139.446;2022-10-31T06:15:48;7;6;
48893;PMS5003;34710;35.798;139.446;2022-10-31T06:18:17;6;5;
48893;PMS5003;34710;35.798;139.446;2022-10-31T06:20:47;8;5;
48893;PMS5003;34710;35.798;139.446;2022-10-31T06:23:16;5;5;
48893;PMS5003;34710;35.798;139.446;2022-10-31T06:25:48;8;6;
48893;PMS5003;34710;35.798;139.446;2022-10-31T06:28:17;4;4;
48893;PMS5003;34710;35.798;139.446;2022-10-31T06:30:47;6;4;
48893;PMS5003;34710;35.798;139.446;2022-10-31T06:33:16;9;6;
48893;PMS5003;34710;35.798;139.446;2022-10-31T06:35:46;7;5;
48893;PMS5003;34710;35.798;139.446;2022-10-31T06:38:15;9;4;
48893;PMS5003;34710;35.798;139.446;2022-10-31T06:40:44;7;6;
48893;PMS5003;34710;35.798;139.446;2022-10-31T06:43:14;6;6;
48893;PMS5003;34710;35.798;139.446;2022-10-31T06:45:44;8;7;
48893;PMS5003;34710;35.798;139.446;2022-10-31T06:48:13;6;5;
48893;PMS5003;34710;35.798;139.446;2022-10-31T06:50:42;5;5;
48893;PMS5003;34710;35.798;139.446;2022-10-31T06:53:12;7;6;
48893;PMS5003;34710;35.798;139.446;2022-10-31T06:55:41;26;20;
48893;PMS5003;34710;35.798;139.446;2022-10-31T06:58:10;13;12;
48893;PMS5003;34710;35.798;139.446;2022-10-31T07:00:40;7;6;
48893;PMS5003;34710;35.798;139.446;2022-10-31T07:03:10;9;8;
48893;PMS5003;34710;35.798;139.446;2022-10-31T07:05:40;7;6;
48893;PMS5003;34710;35.798;139.446;2022-10-31T07:08:11;10;7;
48893;PMS5003;34710;35.798;139.446;2022-10-31T07:10:42;9;8;
48893;PMS5003;34710;35.798;139.446;2022-10-31T07:13:17;8;7;
48893;PMS5003;34710;35.798;139.446;2022-10-31T07:15:47;9;7;
48893;PMS5003;34710;35.798;139.446;2022-10-31T07:18:16;12;10;
48893;PMS5003;34710;35.798;139.446;2022-10-31T07:20:45;12;7;
48893;PMS5003;34710;35.798;139.446;2022-10-31T07:23:16;7;6;
48893;PMS5003;34710;35.798;139.446;2022-10-31T07:25:45;7;7;
48893;PMS5003;34710;35.798;139.446;2022-10-31T07:28:14;22;16;
48893;PMS5003;34710;35.798;139.446;2022-10-31T07:30:43;7;7;
48893;PMS5003;34710;35.798;139.446;2022-10-31T07:33:16;8;6;
48893;PMS5003;34710;35.798;139.446;2022-10-31T07:35:45;7;6;
48893;PMS5003;34710;35.798;139.446;2022-10-31T07:38:15;9;7;
48893;PMS5003;34710;35.798;139.446;2022-10-31T07:40:48;7;7;
48893;PMS5003;34710;35.798;139.446;2022-10-31T07:43:18;9;7;
48893;PMS5003;34710;35.798;139.446;2022-10-31T07:45:50;8;8;
48893;PMS5003;34710;35.798;139.446;2022-10-31T07:48:20;8;7;
48893;PMS5003;34710;35.798;139.446;2022-10-31T07:50:49;11;8;
48893;PMS5003;34710;35.798;139.446;2022-10-31T07:53:18;8;6;
48893;PMS5003;34710;35.798;139.446;2022-10-31T07:55:48;8;6;
48893;PMS5003;34710;35.798;139.446;2022-10-31T07:58:18;9;8;
48893;PMS5003;34710;35.798;139.446;2022-10-31T08:00:48;5;5;
48893;PMS5003;34710;35.798;139.446;2022-10-31T08:03:18;6;5;
48893;PMS5003;34710;35.798;139.446;2022-10-31T08:05:48;9;6;
48893;PMS5003;34710;35.798;139.446;2022-10-31T08:08:16;5;4;
48893;PMS5003;34710;35.798;139.446;2022-10-31T08:10:46;3;3;
48893;PMS5003;34710;35.798;139.446;2022-10-31T08:13:15;4;4;
48893;PMS5003;34710;35.798;139.446;2022-10-31T08:15:44;4;3;
48893;PMS5003;34710;35.798;139.446;2022-10-31T08:18:13;8;3;
48893;PMS5003;34710;35.798;139.446;2022-10-31T08:20:43;5;4;
48893;PMS5003;34710;35.798;139.446;2022-10-31T08:23:12;2;2;
48893;PMS5003;34710;35.798;139.446;2022-10-31T08:25:42;6;4;
48893;PMS5003;34710;35.798;139.446;2022-10-31T08:28:11;5;4;
48893;PMS5003;34710;35.798;139.446;2022-10-31T08:30:41;3;3;
48893;PMS5003;34710;35.798;139.446;2022-10-31T08:33:11;5;3;
48893;PMS5003;34710;35.798;139.446;2022-10-31T08:35:42;3;3;
48893;PMS5003;34710;35.798;139.446;2022-10-31T08:38:12;3;3;
48893;PMS5003;34710;35.798;139.446;2022-10-31T08:40:41;4;4;
48893;PMS5003;34710;35.798;139.446;2022-10-31T08:43:11;5;3;
48893;PMS5003;34710;35.798;139.446;2022-10-31T08:45:41;5;2;
48893;PMS5003;34710;35.798;139.446;2022-10-31T08:48:12;5;2;
48893;PMS5003;34710;35.798;139.446;2022-10-31T08:50:44;3;3;
48893;PMS5003;34710;35.798;139.446;2022-10-31T08:53:14;3;3;
48893;PMS5003;34710;35.798;139.446;2022-10-31T08:55:44;2;2;
48893;PMS5003;34710;35.798;139.446;2022-10-31T08:58:14;3;3;
48893;PMS5003;34710;35.798;139.446;2022-10-31T09:00:46;3;3;
48893;PMS5003;34710;35.798;139.446;2022-10-31T09:03:18;6;4;
48893;PMS5003;34710;35.798;139.446;2022-10-31T09:05:48;4;4;
48893;PMS5003;34710;35.798;139.446;2022-10-31T09:08:21;5;4;
48893;PMS5003;34710;35.798;139.446;2022-10-31T09:10:51;4;3;
48893;PMS5003;34710;35.798;139.446;2022-10-31T09:13:23;4;4;
48893;PMS5003;34710;35.798;139.446;2022-10-31T09:15:52;3;3;
48893;PMS5003;34710;35.798;139.446;2022-10-31T09:18:23;3;3;
48893;PMS5003;34710;35.798;139.446;2022-10-31T09:20:52;6;3;
48893;PMS5003;34710;35.798;139.446;2022-10-31T09:23:24;5;4;
48893;PMS5003;34710;35.798;139.446;2022-10-31T09:25:54;2;2;
48893;PMS5003;34710;35.798;139.446;2022-10-31T09:28:26;5;4;
48893;PMS5003;34710;35.798;139.446;2022-10-31T09:30:55;4;4;
48893;PMS5003;34710;35.798;139.446;2022-10-31T09:33:25;7;4;
48893;PMS5003;34710;35.798;139.446;2022-10-31T09:35:54;5;4;
48893;PMS5003;34710;35.798;139.446;2022-10-31T09:38:25;5;5;
48893;PMS5003;34710;35.798;139.446;2022-10-31T09:40:55;10;4;
48893;PMS5003;34710;35.798;139.446;2022-10-31T09:43:37;6;4;
48893;PMS5003;34710;35.798;139.446;2022-10-31T09:46:16;3;3;
48893;PMS5003;34710;35.798;139.446;2022-10-31T09:48:57;5;5;
48893;PMS5003;34710;35.798;139.446;2022-10-31T09:49:37;5;5;
48893;PMS5003;34710;35.798;139.446;2022-10-31T09:52:21;7;7;
48893;PMS5003;34710;35.798;139.446;2022-10-31T09:54:56;5;5;
48893;PMS5003;34710;35.798;139.446;2022-10-31T09:57:28;7;7;
48893;PMS5003;34710;35.798;139.446;2022-10-31T10:00:00;8;7;
48893;PMS5003;34710;35.798;139.446;2022-10-31T10:02:33;9;4;
48893;PMS5003;34710;35.798;139.446;2022-10-31T10:05:09;5;4;
48893;PMS5003;34710;35.798;139.446;2022-10-31T10:07:44;11;7;
48893;PMS5003;34710;35.798;139.446;2022-10-31T10:10:27;7;6;
48893;PMS5003;34710;35.798;139.446;2022-10-31T10:13:08;8;6;
48893;PMS5003;34710;35.798;139.446;2022-10-31T10:15:57;7;6;
48893;PMS5003;34710;35.798;139.446;2022-10-31T10:18:41;11;6;
48893;PMS5003;34710;35.798;139.446;2022-10-31T10:21:22;6;5;
48893;PMS5003;34710;35.798;139.446;2022-10-31T10:24:03;5;5;
48893;PMS5003;34710;35.798;139.446;2022-10-31T10:26:41;14;9;
48893;PMS5003;34710;35.798;139.446;2022-10-31T10:29:23;7;6;
48893;PMS5003;34710;35.798;139.446;2022-10-31T10:32:00;6;6;
48893;PMS5003;34710;35.798;139.446;2022-10-31T10:34:34;9;7;
48893;PMS5003;34710;35.798;139.446;2022-10-31T10:37:19;7;7;
48893;PMS5003;34710;35.798;139.446;2022-10-31T10:39:54;11;7;
48893;PMS5003;34710;35.798;139.446;2022-10-31T10:42:33;7;7;
48893;PMS5003;34710;35.798;139.446;2022-10-31T10:45:12;6;6;
48893;PMS5003;34710;35.798;139.446;2022-10-31T10:47:44;9;8;
48893;PMS5003;34710;35.798;139.446;2022-10-31T10:50:23;10;7;
48893;PMS5003;34710;35.798;139.446;2022-10-31T10:53:00;9;8;
48893;PMS5003;34710;35.798;139.446;2022-10-31T10:55:36;17;9;
48893;PMS5003;34710;35.798;139.446;2022-10-31T10:58:12;10;9;
48893;PMS5003;34710;35.798;139.446;2022-10-31T11:00:42;9;8;
48893;PMS5003;34710;35.798;139.446;2022-10-31T11:03:12;13;8;
48893;PMS5003;34710;35.798;139.446;2022-10-31T11:05:45;14;11;
48893;PMS5003;34710;35.798;139.446;2022-10-31T11:08:26;13;13;
48893;PMS5003;34710;35.798;139.446;2022-10-31T11:10:59;14;10;
48893;PMS5003;34710;35.798;139.446;2022-10-31T11:13:31;11;10;
48893;PMS5003;34710;35.798;139.446;2022-10-31T11:16:03;9;7;
48893;PMS5003;34710;35.798;139.446;2022-10-31T11:18:34;10;8;
48893;PMS5003;34710;35.798;139.446;2022-10-31T11:21:17;7;6;
48893;PMS5003;34710;35.798;139.446;2022-10-31T11:23:49;9;9;
48893;PMS5003;34710;35.798;139.446;2022-10-31T11:26:29;11;8;
48893;PMS5003;34710;35.798;139.446;2022-10-31T11:28:58;9;8;
48893;PMS5003;34710;35.798;139.446;2022-10-31T11:31:28;16;9;
48893;PMS5003;34710;35.798;139.446;2022-10-31T11:33:58;12;11;
48893;PMS5003;34710;35.798;139.446;2022-10-31T11:36:30;25;10;
48893;PMS5003;34710;35.798;139.446;2022-10-31T11:39:03;9;8;
48893;PMS5003;34710;35.798;139.446;2022-10-31T11:41:41;11;10;
48893;PMS5003;34710;35.798;139.446;2022-10-31T11:44:12;14;10;
48893;PMS5003;34710;35.798;139.446;2022-10-31T11:46:45;13;12;
48893;PMS5003;34710;35.798;139.446;2022-10-31T11:49:18;11;10;
48893;PMS5003;34710;35.798;139.446;2022-10-31T11:51:54;13;10;
48893;PMS5003;34710;35.798;139.446;2022-10-31T11:54:27;21;9;
48893;PMS5003;34710;35.798;139.446;2022-10-31T11:56:59;10;9;
48893;PMS5003;34710;35.798;139.446;2022-10-31T11:59:29;11;11;
48893;PMS5003;34710;35.798;139.446;2022-10-31T12:02:00;13;11;
48893;PMS5003;34710;35.798;139.446;2022-10-31T12:04:46;14;11;
48893;PMS5003;34710;35.798;139.446;2022-10-31T12:07:22;13;10;
48893;PMS5003;34710;35.798;139.446;2022-10-31T12:09:51;14;10;
48893;PMS5003;34710;35.798;139.446;2022-10-31T12:12:28;10;9;
48893;PMS5003;34710;35.798;139.446;2022-10-31T12:15:24;11;11;
48893;PMS5003;34710;35.798;139.446;2022-10-31T12:18:05;15;11;
48893;PMS5003;34710;35.798;139.446;2022-10-31T12:21:09;12;10;
48893;PMS5003;34710;35.798;139.446;2022-10-31T12:23:50;15;11;
48893;PMS5003;34710;35.798;139.446;2022-10-31T12:26:30;11;11;
48893;PMS5003;34710;35.798;139.446;2022-10-31T12:29:10;9;9;
48893;PMS5003;34710;35.798;139.446;2022-10-31T12:31:53;9;9;
48893;PMS5003;34710;35.798;139.446;2022-10-31T12:34:47;18;13;
48893;PMS5003;34710;35.798;139.446;2022-10-31T12:37:31;10;10;
48893;PMS5003;34710;35.798;139.446;2022-10-31T12:40:19;16;14;
48893;PMS5003;34710;35.798;139.446;2022-10-31T12:43:03;15;11;
48893;PMS5003;34710;35.798;139.446;2022-10-31T12:45:49;16;15;
48893;PMS5003;34710;35.798;139.446;2022-10-31T12:48:33;19;13;
48893;PMS5003;34710;35.798;139.446;2022-10-31T12:51:29;12;11;
48893;PMS5003;34710;35.798;139.446;2022-10-31T12:54:12;12;11;
48893;PMS5003;34710;35.798;139.446;2022-10-31T12:56:52;13;10;
48893;PMS5003;34710;35.798;139.446;2022-10-31T12:59:29;16;13;
48893;PMS5003;34710;35.798;139.446;2022-10-31T13:02:10;15;14;
48893;PMS5003;34710;35.798;139.446;2022-10-31T13:04:47;12;10;
48893;PMS5003;34710;35.798;139.446;2022-10-31T13:07:23;11;11;
48893;PMS5003;34710;35.798;139.446;2022-10-31T13:09:58;14;13;
48893;PMS5003;34710;35.798;139.446;2022-10-31T13:12:29;11;11;
48893;PMS5003;34710;35.798;139.446;2022-10-31T13:15:03;14;13;
48893;PMS5003;34710;35.798;139.446;2022-10-31T13:17:41;14;14;
48893;PMS5003;34710;35.798;139.446;2022-10-31T13:20:17;13;12;
48893;PMS5003;34710;35.798;139.446;2022-10-31T13:22:52;22;11;
48893;PMS5003;34710;35.798;139.446;2022-10-31T13:25:30;12;9;
48893;PMS5003;34710;35.798;139.446;2022-10-31T13:28:08;13;11;
48893;PMS5003;34710;35.798;139.446;2022-10-31T13:30:47;15;13;
48893;PMS5003;34710;35.798;139.446;2022-10-31T13:33:19;11;10;
48893;PMS5003;34710;35.798;139.446;2022-10-31T13:35:54;11;11;
48893;PMS5003;34710;35.798;139.446;2022-10-31T13:38:35;9;9;
48893;PMS5003;34710;35.798;139.446;2022-10-31T13:41:11;9;9;
48893;PMS5003;34710;35.798;139.446;2022-10-31T13:43:55;12;8;
48893;PMS5003;34710;35.798;139.446;2022-10-31T13:46:38;9;8;
48893;PMS5003;34710;35.798;139.446;2022-10-31T13:49:23;11;10;
48893;PMS5003;34710;35.798;139.446;2022-10-31T13:52:12;13;10;
48893;PMS5003;34710;35.798;139.446;2022-10-31T13:54:45;9;8;
48893;PMS5003;34710;35.798;139.446;2022-10-31T13:57:17;13;12;
48893;PMS5003;34710;35.798;139.446;2022-10-31T13:59:50;16;12;
48893;PMS5003;34710;35.798;139.446;2022-10-31T14:02:23;13;11;
48893;PMS5003;34710;35.798;139.446;2022-10-31T14:04:56;11;11;
48893;PMS5003;34710;35.798;139.446;2022-10-31T14:07:28;20;9;
48893;PMS5003;34710;35.798;139.446;2022-10-31T14:10:02;8;8;
48893;PMS5003;34710;35.798;139.446;2022-10-31T14:12:36;11;8;
48893;PMS5003;34710;35.798;139.446;2022-10-31T14:15:13;10;8;
48893;PMS5003;34710;35.798;139.446;2022-10-31T14:17:46;10;8;
48893;PMS5003;34710;35.798;139.446;2022-10-31T14:20:24;14;11;
48893;PMS5003;34710;35.798;139.446;2022-10-31T14:23:26;14;11;
48893;PMS5003;34710;35.798;139.446;2022-10-31T14:26:19;9;8;
48893;PMS5003;34710;35.798;139.446;2022-10-31T14:29:00;6;6;
48893;PMS5003;34710;35.798;139.446;2022-10-31T14:31:52;8;8;
48893;PMS5003;34710;35.798;139.446;2022-10-31T14:34:26;9;9;
48893;PMS5003;34710;35.798;139.446;2022-10-31T14:37:01;10;10;
48893;PMS5003;34710;35.798;139.446;2022-10-31T14:39:52;12;8;
48893;PMS5003;34710;35.798;139.446;2022-10-31T14:42:34;11;9;
48893;PMS5003;34710;35.798;139.446;2022-10-31T14:45:15;12;8;
48893;PMS5003;34710;35.798;139.446;2022-10-31T14:47:58;8;7;
48893;PMS5003;34710;35.798;139.446;2022-10-31T14:50:40;10;8;
48893;PMS5003;34710;35.798;139.446;2022-10-31T14:53:16;9;7;
48893;PMS5003;34710;35.798;139.446;2022-10-31T14:55:51;10;7;
48893;PMS5003;34710;35.798;139.446;2022-10-31T14:58:24;10;10;
48893;PMS5003;34710;35.798;139.446;2022-10-31T15:01:00;8;8;
48893;PMS5003;34710;35.798;139.446;2022-10-31T15:03:31;8;7;
48893;PMS5003;34710;35.798;139.446;2022-10-31T15:06:05;21;9;
48893;PMS5003;34710;35.798;139.446;2022-10-31T15:08:40;11;10;
48893;PMS5003;34710;35.798;139.446;2022-10-31T15:11:14;11;9;
48893;PMS5003;34710;35.798;139.446;2022-10-31T15:13:47;16;8;
48893;PMS5003;34710;35.798;139.446;2022-10-31T15:16:17;9;7;
48893;PMS5003;34710;35.798;139.446;2022-10-31T15:18:49;8;8;
48893;PMS5003;34710;35.798;139.446;2022-10-31T15:21:22;9;9;
48893;PMS5003;34710;35.798;139.446;2022-10-31T15:23:54;21;9;
48893;PMS5003;34710;35.798;139.446;2022-10-31T15:26:27;10;10;
48893;PMS5003;34710;35.798;139.446;2022-10-31T15:29:00;11;11;
48893;PMS5003;34710;35.798;139.446;2022-10-31T15:31:31;11;9;
48893;PMS5003;34710;35.798;139.446;2022-10-31T15:34:02;8;8;
48893;PMS5003;34710;35.798;139.446;2022-10-31T15:36:34;11;10;
48893;PMS5003;34710;35.798;139.446;2022-10-31T15:39:04;7;7;
48893;PMS5003;34710;35.798;139.446;2022-10-31T15:41:46;11;9;
48893;PMS5003;34710;35.798;139.446;2022-10-31T15:44:19;11;10;
48893;PMS5003;34710;35.798;139.446;2022-10-31T15:46:58;10;10;
48893;PMS5003;34710;35.798;139.446;2022-10-31T15:49:32;10;9;
48893;PMS5003;34710;35.798;139.446;2022-10-31T15:52:05;8;7;
48893;PMS5003;34710;35.798;139.446;2022-10-31T15:54:43;10;9;
48893;PMS5003;34710;35.798;139.446;2022-10-31T15:57:15;18;9;
48893;PMS5003;34710;35.798;139.446;2022-10-31T15:59:45;15;10;
48893;PMS5003;34710;35.798;139.446;2022-10-31T16:02:18;9;8;
48893;PMS5003;34710;35.798;139.446;2022-10-31T16:04:50;10;9;
48893;PMS5003;34710;35.798;139.446;2022-10-31T16:07:21;11;9;
48893;PMS5003;34710;35.798;139.446;2022-10-31T16:09:52;9;7;
48893;PMS5003;34710;35.798;139.446;2022-10-31T16:12:24;11;9;
48893;PMS5003;34710;35.798;139.446;2022-10-31T16:14:57;12;11;
48893;PMS5003;34710;35.798;139.446;2022-10-31T16:17:26;9;9;
48893;PMS5003;34710;35.798;139.446;2022-10-31T16:19:56;12;9;
48893;PMS5003;34710;35.798;139.446;2022-10-31T16:22:29;12;9;
48893;PMS5003;34710;35.798;139.446;2022-10-31T16:25:02;12;8;
48893;PMS5003;34710;35.798;139.446;2022-10-31T16:27:37;8;8;
48893;PMS5003;34710;35.798;139.446;2022-10-31T16:30:40;11;7;
48893;PMS5003;34710;35.798;139.446;2022-10-31T16:33:27;10;10;
48893;PMS5003;34710;35.798;139.446;2022-10-31T16:35:58;9;9;
48893;PMS5003;34710;35.798;139.446;2022-10-31T16:38:28;12;7;
48893;PMS5003;34710;35.798;139.446;2022-10-31T16:40:57;8;8;
48893;PMS5003;34710;35.798;139.446;2022-10-31T16:43:28;11;9;
48893;PMS5003;34710;35.798;139.446;2022-10-31T16:45:57;11;10;
48893;PMS5003;34710;35.798;139.446;2022-10-31T16:48:26;9;9;